createdAt,value
2022-12-05T00:00:46.386Z,2.52
2022-12-05T00:03:53.023Z,2.49
2022-12-05T00:06:56.691Z,2.48
2022-12-05T00:10:00.527Z,2.48
2022-12-05T00:13:06.266Z,2.49
2022-12-05T00:16:11.361Z,2.49
2022-12-05T00:19:17.297Z,2.49
2022-12-05T00:22:20.962Z,2.46
2022-12-05T00:25:24.626Z,2.46
2022-12-05T00:28:29.603Z,2.46
2022-12-05T00:31:33.421Z,2.46
2022-12-05T00:34:37.837Z,2.48
2022-12-05T00:37:41.462Z,2.47
2022-12-05T00:40:45.058Z,2.44
2022-12-05T00:43:50.488Z,2.51
2022-12-05T00:46:54.217Z,2.50
2022-12-05T00:49:58.078Z,2.45
2022-12-05T00:53:01.923Z,2.45
2022-12-05T00:56:08.199Z,2.47
2022-12-05T00:59:19.595Z,2.47
2022-12-05T01:02:23.333Z,2.50
2022-12-05T01:05:26.924Z,2.54
2022-12-05T01:08:30.740Z,2.51
2022-12-05T01:11:40.769Z,2.54
2022-12-05T01:14:46.489Z,2.49
2022-12-05T01:17:50.087Z,2.51
2022-12-05T01:20:54.442Z,2.51
2022-12-05T01:23:58.639Z,2.51
2022-12-05T01:27:02.386Z,2.52
2022-12-05T01:30:09.689Z,2.53
2022-12-05T01:33:14.075Z,2.60
2022-12-05T01:36:18.345Z,2.54
2022-12-05T01:39:22.429Z,2.54
2022-12-05T01:42:26.594Z,2.57
2022-12-05T01:45:36.876Z,2.56
2022-12-05T01:48:40.745Z,2.57
2022-12-05T01:51:49.319Z,2.57
2022-12-05T01:54:58.003Z,2.53
2022-12-05T01:58:04.633Z,2.53
2022-12-05T02:01:09.810Z,2.51
2022-12-05T02:04:13.810Z,2.55
2022-12-05T02:07:19.003Z,2.54
2022-12-05T02:10:22.882Z,2.52
2022-12-05T02:13:54.614Z,2.50
2022-12-05T02:17:11.310Z,2.54
2022-12-05T02:20:34.743Z,2.53
2022-12-05T02:24:33.458Z,2.54
2022-12-05T02:28:13.212Z,2.54
2022-12-05T02:31:28.760Z,2.55
2022-12-05T02:34:43.650Z,2.56
2022-12-05T02:37:56.826Z,2.54
2022-12-05T02:41:17.606Z,2.54
2022-12-05T02:44:29.866Z,2.57
2022-12-05T02:47:41.780Z,2.57
2022-12-05T02:50:50.153Z,2.57
2022-12-05T02:53:58.163Z,2.57
2022-12-05T02:57:02.933Z,2.58
2022-12-05T03:00:08.512Z,2.58
2022-12-05T03:03:20.466Z,2.56
2022-12-05T03:06:29.513Z,2.55
2022-12-05T03:09:38.752Z,2.55
2022-12-05T03:12:51.853Z,2.53
2022-12-05T03:16:02.006Z,2.52
2022-12-05T03:19:16.366Z,2.49
2022-12-05T03:22:29.653Z,2.48
2022-12-05T03:25:48.879Z,2.50
2022-12-05T03:29:11.585Z,2.50
2022-12-05T03:32:24.017Z,2.47
2022-12-05T03:35:40.967Z,2.47
2022-12-05T03:38:55.180Z,2.49
2022-12-05T03:42:10.202Z,2.46
2022-12-05T03:45:25.970Z,2.43
2022-12-05T03:48:38.160Z,2.48
2022-12-05T03:51:51.634Z,2.44
2022-12-05T03:55:01.503Z,2.46
2022-12-05T03:58:11.458Z,2.48
2022-12-05T04:01:21.650Z,2.45
2022-12-05T04:04:33.130Z,2.46
2022-12-05T04:07:41.855Z,2.46
2022-12-05T04:10:50.902Z,2.47
2022-12-05T04:14:01.244Z,2.45
2022-12-05T04:17:10.116Z,2.45
2022-12-05T04:20:36.606Z,2.47
2022-12-05T04:23:47.605Z,2.48
2022-12-05T04:27:04.798Z,2.48
2022-12-05T04:30:14.259Z,2.50
2022-12-05T04:33:29.432Z,2.52
2022-12-05T04:36:36.818Z,2.51
2022-12-05T04:39:52.313Z,2.51
2022-12-05T04:42:59.383Z,2.53
2022-12-05T04:46:12.776Z,2.50
2022-12-05T04:49:23.842Z,2.53
2022-12-05T04:52:30.144Z,2.53
2022-12-05T04:55:40.682Z,2.54
2022-12-05T04:58:44.539Z,2.53
2022-12-05T05:01:54.489Z,2.57
2022-12-05T05:05:02.272Z,2.55
2022-12-05T05:08:06.356Z,2.59
2022-12-05T05:11:17.842Z,2.59
2022-12-05T05:14:21.412Z,2.57
2022-12-05T05:17:24.948Z,2.60
2022-12-05T05:20:28.588Z,2.61
2022-12-05T05:23:32.254Z,2.62
2022-12-05T05:26:39.641Z,2.64
2022-12-05T05:29:43.639Z,2.64
2022-12-05T05:32:47.360Z,2.65
2022-12-05T05:35:51.222Z,2.66
2022-12-05T05:38:57.910Z,2.67
2022-12-05T05:42:02.994Z,2.68
2022-12-05T05:45:07.686Z,2.68
2022-12-05T05:48:11.428Z,2.69
2022-12-05T05:51:17.638Z,2.71
2022-12-05T05:54:21.294Z,2.72
2022-12-05T05:57:26.375Z,2.73
2022-12-05T06:00:31.325Z,2.72
2022-12-05T06:03:42.340Z,2.75
2022-12-05T06:06:46.100Z,2.76
2022-12-05T06:09:49.770Z,2.73
2022-12-05T06:12:55.027Z,2.72
2022-12-05T06:15:58.723Z,2.77
2022-12-05T06:19:02.571Z,2.78
2022-12-05T06:22:06.255Z,2.85
2022-12-05T06:25:11.911Z,2.82
2022-12-05T06:28:17.986Z,2.83
2022-12-05T06:31:27.146Z,2.84
2022-12-05T06:34:32.604Z,2.86
2022-12-05T06:37:38.722Z,2.86
2022-12-05T06:40:43.945Z,2.87
2022-12-05T06:43:49.345Z,2.87
2022-12-05T06:46:52.970Z,2.89
2022-12-05T06:49:56.847Z,2.87
2022-12-05T06:53:00.564Z,2.88
2022-12-05T06:56:08.623Z,2.87
2022-12-05T06:59:13.630Z,2.87
2022-12-05T07:02:16.435Z,2.88
2022-12-05T07:05:20.823Z,2.87
2022-12-05T07:08:24.382Z,2.86
2022-12-05T07:11:28.550Z,2.87
2022-12-05T07:14:50.034Z,2.88
2022-12-05T07:17:53.961Z,2.87
2022-12-05T07:21:14.513Z,2.87
2022-12-05T07:24:18.997Z,2.87
2022-12-05T07:27:27.305Z,2.87
2022-12-05T07:30:33.439Z,2.87
2022-12-05T07:33:37.865Z,2.86
2022-12-05T07:36:41.683Z,2.89
2022-12-05T07:39:45.273Z,2.86
2022-12-05T07:42:50.368Z,2.88
2022-12-05T07:45:55.409Z,2.89
2022-12-05T07:49:00.602Z,2.87
2022-12-05T07:52:04.557Z,2.89
2022-12-05T07:55:10.624Z,2.87
2022-12-05T07:58:14.381Z,2.87
2022-12-05T08:01:22.727Z,2.88
2022-12-05T08:04:26.506Z,2.88
2022-12-05T08:07:30.392Z,2.86
2022-12-05T08:10:38.569Z,2.88
2022-12-05T08:13:43.368Z,2.87
2022-12-05T08:16:48.698Z,2.87
2022-12-05T08:19:52.294Z,2.83
2022-12-05T08:22:56.764Z,2.84
2022-12-05T08:26:04.568Z,2.85
2022-12-05T08:29:10.778Z,2.85
2022-12-05T08:32:16.000Z,2.84
2022-12-05T08:35:19.635Z,2.86
2022-12-05T08:38:25.058Z,2.86
2022-12-05T08:41:30.650Z,2.84
2022-12-05T08:44:34.408Z,2.86
2022-12-05T08:47:39.482Z,2.83
2022-12-05T08:50:44.112Z,2.85
2022-12-05T08:53:47.818Z,2.86
2022-12-05T08:56:53.678Z,2.86
2022-12-05T08:59:58.696Z,2.86
2022-12-05T09:03:03.693Z,2.86
2022-12-05T09:06:09.686Z,2.88
2022-12-05T09:09:13.835Z,2.83
2022-12-05T09:12:17.519Z,2.88
2022-12-05T09:15:27.841Z,3.02
2022-12-05T09:18:33.019Z,2.89
2022-12-05T09:21:36.638Z,2.88
2022-12-05T09:24:40.382Z,2.85
2022-12-05T09:27:44.070Z,2.85
2022-12-05T09:30:57.501Z,2.82
2022-12-05T09:34:02.784Z,2.81
2022-12-05T09:37:30.883Z,2.82
2022-12-05T09:40:32.815Z,2.81
2022-12-05T09:43:50.990Z,2.81
2022-12-05T09:47:01.127Z,2.82
2022-12-05T09:50:21.210Z,2.78
2022-12-05T09:53:31.812Z,2.78
2022-12-05T09:56:35.502Z,2.70
2022-12-05T09:59:39.087Z,2.71
2022-12-05T10:02:58.974Z,2.70
2022-12-05T10:06:20.235Z,2.69
2022-12-05T10:09:46.987Z,2.67
2022-12-05T10:13:15.156Z,2.63
2022-12-05T10:16:30.815Z,2.63
2022-12-05T10:19:40.989Z,2.48
2022-12-05T10:22:52.639Z,2.47
2022-12-05T10:26:01.306Z,2.49
2022-12-05T10:29:20.598Z,2.49
2022-12-05T10:32:31.509Z,2.50
2022-12-05T10:35:38.177Z,2.49
2022-12-05T10:38:45.732Z,2.47
2022-12-05T10:41:49.470Z,2.19
2022-12-05T10:44:59.954Z,2.18
2022-12-05T10:48:03.830Z,2.05
2022-12-05T10:51:12.577Z,2.05
2022-12-05T10:54:23.616Z,2.03
2022-12-05T10:57:30.948Z,1.99
2022-12-05T11:00:34.738Z,1.95
2022-12-05T11:03:41.804Z,1.97
2022-12-05T11:06:53.849Z,1.95
2022-12-05T11:10:00.263Z,1.94
2022-12-05T11:13:16.302Z,1.95
2022-12-05T11:16:27.057Z,1.94
2022-12-05T11:19:34.494Z,1.86
2022-12-05T11:22:44.443Z,1.87
2022-12-05T11:25:52.948Z,1.83
2022-12-05T11:28:56.521Z,1.80
2022-12-05T11:32:02.249Z,1.85
2022-12-05T11:35:27.165Z,1.81
2022-12-05T11:38:34.818Z,1.78
2022-12-05T11:42:06.118Z,1.82
2022-12-05T11:45:36.794Z,1.80
2022-12-05T11:49:18.884Z,1.87
2022-12-05T11:52:41.007Z,1.87
2022-12-05T11:55:52.793Z,1.93
2022-12-05T11:59:36.915Z,2.01
2022-12-05T12:03:16.605Z,1.97
2022-12-05T12:06:32.009Z,1.81
2022-12-05T12:09:51.583Z,1.80
2022-12-05T12:13:16.123Z,1.80
2022-12-05T12:16:36.337Z,1.76
2022-12-05T12:20:20.462Z,1.75
2022-12-05T12:23:51.689Z,1.69
2022-12-05T12:27:14.960Z,1.59
2022-12-05T12:30:27.702Z,1.62
2022-12-05T12:33:42.140Z,1.61
2022-12-05T12:36:53.879Z,1.59
2022-12-05T12:40:13.552Z,1.56
2022-12-05T12:43:56.810Z,1.57
2022-12-05T12:47:05.330Z,1.56
2022-12-05T12:50:20.658Z,1.49
2022-12-05T12:54:10.406Z,1.53
2022-12-05T12:57:27.995Z,1.61
2022-12-05T13:00:51.095Z,1.52
2022-12-05T13:04:02.929Z,1.47
2022-12-05T13:07:17.270Z,1.37
2022-12-05T13:10:33.131Z,1.41
2022-12-05T13:13:44.151Z,1.33
2022-12-05T13:16:53.149Z,1.27
2022-12-05T13:19:58.027Z,1.25
2022-12-05T13:23:08.381Z,1.29
2022-12-05T13:26:14.444Z,1.26
2022-12-05T13:29:25.328Z,1.16
2022-12-05T13:32:34.459Z,1.15
2022-12-05T13:35:57.906Z,1.30
2022-12-05T13:39:24.115Z,1.31
2022-12-05T13:42:33.183Z,1.24
2022-12-05T13:45:37.343Z,1.20
2022-12-05T13:48:45.757Z,1.17
2022-12-05T13:51:49.534Z,1.16
2022-12-05T13:55:02.171Z,1.16
2022-12-05T13:58:51.639Z,1.18
2022-12-05T14:01:56.574Z,1.28
2022-12-05T14:05:00.376Z,1.17
2022-12-05T14:08:56.718Z,1.18
2022-12-05T14:12:48.037Z,1.16
2022-12-05T14:15:53.373Z,1.26
2022-12-05T14:19:08.302Z,1.26
2022-12-05T14:22:42.354Z,1.17
2022-12-05T14:26:09.113Z,1.15
2022-12-05T14:29:40.370Z,1.18
2022-12-05T14:32:44.938Z,1.11
2022-12-05T14:35:53.074Z,1.19
2022-12-05T14:38:56.722Z,1.12
2022-12-05T14:42:04.485Z,1.10
2022-12-05T14:45:47.839Z,1.10
2022-12-05T14:48:52.254Z,1.09
2022-12-05T14:51:59.175Z,1.03
2022-12-05T14:55:22.050Z,1.01
2022-12-05T14:58:38.741Z,0.99
2022-12-05T15:01:50.287Z,0.95
2022-12-05T15:05:02.829Z,0.95
2022-12-05T15:08:07.569Z,0.97
2022-12-05T15:11:28.371Z,0.90
2022-12-05T15:14:41.338Z,0.90
2022-12-05T15:17:53.495Z,0.90
2022-12-05T15:21:04.083Z,0.90
2022-12-05T15:24:14.963Z,0.68
2022-12-05T15:27:18.920Z,0.73
2022-12-05T15:30:22.786Z,0.66
2022-12-05T15:33:29.878Z,0.67
2022-12-05T15:36:42.169Z,0.63
2022-12-05T15:39:56.327Z,0.64
2022-12-05T15:43:00.095Z,0.57
2022-12-05T15:46:27.771Z,0.65
2022-12-05T15:49:32.738Z,0.63
2022-12-05T15:52:44.733Z,0.62
2022-12-05T15:55:53.781Z,0.62
2022-12-05T15:59:05.770Z,0.63
2022-12-05T16:02:18.256Z,0.68
2022-12-05T16:05:30.490Z,0.72
2022-12-05T16:08:40.899Z,0.71
2022-12-05T16:11:54.446Z,0.73
2022-12-05T16:15:06.227Z,0.71
2022-12-05T16:18:27.727Z,0.70
2022-12-05T16:21:38.795Z,0.70
2022-12-05T16:24:48.484Z,0.71
2022-12-05T16:28:15.140Z,0.73
2022-12-05T16:31:18.815Z,0.77
2022-12-05T16:34:22.684Z,0.67
2022-12-05T16:37:31.726Z,0.67
2022-12-05T16:40:35.490Z,0.65
2022-12-05T16:43:47.581Z,0.63
2022-12-05T16:46:51.504Z,0.68
2022-12-05T16:49:55.159Z,0.72
2022-12-05T16:53:21.248Z,0.66
2022-12-05T16:56:31.256Z,0.62
2022-12-05T16:59:38.396Z,0.68
2022-12-05T17:02:42.289Z,0.55
2022-12-05T17:05:45.971Z,0.53
2022-12-05T17:08:51.803Z,0.56
2022-12-05T17:12:04.255Z,0.62
2022-12-05T17:15:17.592Z,0.60
2022-12-05T17:18:27.935Z,0.57
2022-12-05T17:21:36.261Z,0.56
2022-12-05T17:24:41.327Z,0.61
2022-12-05T17:27:45.080Z,0.48
2022-12-05T17:30:48.960Z,0.40
2022-12-05T17:33:54.940Z,0.45
2022-12-05T17:36:58.678Z,0.49
2022-12-05T17:40:03.838Z,0.51
2022-12-05T17:43:07.840Z,0.55
2022-12-05T17:46:11.822Z,0.54
2022-12-05T17:49:20.134Z,0.47
2022-12-05T17:52:23.886Z,0.46
2022-12-05T17:55:31.248Z,0.42
2022-12-05T17:58:34.863Z,0.37
2022-12-05T18:01:38.486Z,0.42
2022-12-05T18:04:42.065Z,0.50
2022-12-05T18:07:46.932Z,0.43
2022-12-05T18:10:52.580Z,0.51
2022-12-05T18:13:56.822Z,0.48
2022-12-05T18:17:01.243Z,0.56
2022-12-05T18:20:06.926Z,0.51
2022-12-05T18:23:11.799Z,0.45
2022-12-05T18:26:16.918Z,0.35
2022-12-05T18:29:20.973Z,0.27
2022-12-05T18:32:25.028Z,0.36
2022-12-05T18:35:41.342Z,0.43
2022-12-05T18:38:52.283Z,0.53
2022-12-05T18:41:57.451Z,0.54
2022-12-05T18:45:01.822Z,0.54
2022-12-05T18:48:23.806Z,0.53
2022-12-05T18:51:30.807Z,0.43
2022-12-05T18:54:34.865Z,0.46
2022-12-05T18:57:40.359Z,0.48
2022-12-05T19:00:44.252Z,0.44
2022-12-05T19:03:48.327Z,0.46
2022-12-05T19:06:54.951Z,0.47
2022-12-05T19:09:58.623Z,0.46
2022-12-05T19:13:03.693Z,0.46
2022-12-05T19:16:10.184Z,0.43
2022-12-05T19:19:15.924Z,0.47
2022-12-05T19:22:19.602Z,0.64
2022-12-05T19:25:23.326Z,0.54
2022-12-05T19:28:29.106Z,0.51
2022-12-05T19:31:33.238Z,0.39
2022-12-05T19:34:36.954Z,0.38
2022-12-05T19:37:40.521Z,0.38
2022-12-05T19:40:44.824Z,0.42
2022-12-05T19:43:50.373Z,0.45
2022-12-05T19:46:55.113Z,0.44
2022-12-05T19:49:59.182Z,0.46
2022-12-05T19:53:03.103Z,0.50
2022-12-05T19:56:09.880Z,0.50
2022-12-05T19:59:17.491Z,0.45
2022-12-05T20:02:21.344Z,0.47
2022-12-05T20:05:25.467Z,0.49
2022-12-05T20:08:29.139Z,0.58
2022-12-05T20:11:32.979Z,0.57
2022-12-05T20:14:38.649Z,0.58
2022-12-05T20:17:42.525Z,0.53
2022-12-05T20:20:57.157Z,0.51
2022-12-05T20:24:02.851Z,0.64
2022-12-05T20:27:07.358Z,0.62
2022-12-05T20:30:13.107Z,0.68
2022-12-05T20:33:17.293Z,0.60
2022-12-05T20:36:23.680Z,0.64
2022-12-05T20:39:28.162Z,0.69
2022-12-05T20:42:32.271Z,0.63
2022-12-05T20:45:38.011Z,0.64
2022-12-05T20:48:42.910Z,0.65
2022-12-05T20:51:48.798Z,0.73
2022-12-05T20:54:52.735Z,0.67
2022-12-05T20:57:56.557Z,0.68
2022-12-05T21:01:02.984Z,0.71
2022-12-05T21:04:09.284Z,0.74
2022-12-05T21:07:13.194Z,0.74
2022-12-05T21:10:17.626Z,0.79
2022-12-05T21:13:21.579Z,0.78
2022-12-05T21:16:27.121Z,0.80
2022-12-05T21:19:31.007Z,0.85
2022-12-05T21:22:34.978Z,0.81
2022-12-05T21:25:38.700Z,0.82
2022-12-05T21:28:43.826Z,0.89
2022-12-05T21:31:52.907Z,0.93
2022-12-05T21:34:56.533Z,0.97
2022-12-05T21:38:01.105Z,0.94
2022-12-05T21:41:06.684Z,0.93
2022-12-05T21:44:11.083Z,0.99
2022-12-05T21:47:16.668Z,1.01
2022-12-05T21:50:20.357Z,0.96
2022-12-05T21:53:24.302Z,0.97
2022-12-05T21:56:28.449Z,1.02
2022-12-05T21:59:33.290Z,1.05
2022-12-05T22:02:38.399Z,1.07
2022-12-05T22:05:42.369Z,1.06
2022-12-05T22:08:46.092Z,1.03
2022-12-05T22:11:49.867Z,1.09
2022-12-05T22:14:53.507Z,1.06
2022-12-05T22:17:58.675Z,1.06
2022-12-05T22:21:05.835Z,1.10
2022-12-05T22:24:09.716Z,1.11
2022-12-05T22:27:13.379Z,1.12
2022-12-05T22:30:17.606Z,1.12
2022-12-05T22:33:22.791Z,1.12
2022-12-05T22:36:26.787Z,1.10
2022-12-05T22:39:30.616Z,1.15
2022-12-05T22:42:43.844Z,1.21
2022-12-05T22:45:47.630Z,1.20
2022-12-05T22:48:53.412Z,1.24
2022-12-05T22:51:57.076Z,1.25
2022-12-05T22:55:01.088Z,1.26
2022-12-05T22:58:05.090Z,1.27
2022-12-05T23:01:14.882Z,1.26
2022-12-05T23:04:20.248Z,1.31
2022-12-05T23:07:24.162Z,1.33
2022-12-05T23:10:27.843Z,1.35
2022-12-05T23:13:33.698Z,1.40
2022-12-05T23:16:37.416Z,1.42
2022-12-05T23:19:42.555Z,1.42
2022-12-05T23:22:46.839Z,1.47
2022-12-05T23:25:51.144Z,1.47
2022-12-05T23:28:56.153Z,1.49
2022-12-05T23:31:59.932Z,1.56
2022-12-05T23:35:05.646Z,1.56
2022-12-05T23:38:09.417Z,1.53
2022-12-05T23:41:16.290Z,1.60
2022-12-05T23:44:19.978Z,1.61
2022-12-05T23:47:23.562Z,1.61
2022-12-05T23:50:28.591Z,1.59
2022-12-05T23:53:35.320Z,1.60
2022-12-05T23:56:39.810Z,1.62
2022-12-05T23:59:43.395Z,1.69
